createdAt,value
2018-12-11T00:00:37.256Z,3.83
2018-12-11T00:03:05.935Z,5.80
2018-12-11T00:05:34.802Z,3.40
2018-12-11T00:08:03.800Z,4.77
2018-12-11T00:10:35.472Z,5.27
2018-12-11T00:13:08.842Z,4.53
2018-12-11T00:15:37.550Z,4.83
2018-12-11T00:18:06.172Z,5.67
2018-12-11T00:20:34.797Z,5.07
2018-12-11T00:23:03.476Z,3.87
2018-12-11T00:25:32.094Z,4.73
2018-12-11T00:28:00.693Z,4.23
2018-12-11T00:30:29.290Z,4.20
2018-12-11T00:32:57.874Z,4.57
2018-12-11T00:35:26.426Z,4.80
2018-12-11T00:37:54.931Z,5.03
2018-12-11T00:40:23.548Z,6.93
2018-12-11T00:42:52.095Z,7.03
2018-12-11T00:45:20.634Z,4.70
2018-12-11T00:47:49.156Z,5.87
2018-12-11T00:50:17.733Z,4.10
2018-12-11T00:52:46.352Z,3.93
2018-12-11T00:55:15.043Z,4.53
2018-12-11T00:57:43.618Z,5.33
2018-12-11T01:00:12.297Z,4.27
2018-12-11T01:02:40.895Z,4.17
2018-12-11T01:05:09.534Z,6.80
2018-12-11T01:07:38.488Z,3.87
2018-12-11T01:10:09.684Z,5.40
2018-12-11T01:12:38.521Z,5.40
2018-12-11T01:15:07.696Z,4.33
2018-12-11T01:17:36.299Z,4.60
2018-12-11T01:20:05.511Z,4.00
2018-12-11T01:22:34.109Z,4.90
2018-12-11T01:25:02.763Z,5.37
2018-12-11T01:27:31.367Z,6.10
2018-12-11T01:29:59.971Z,5.43
2018-12-11T01:32:28.602Z,4.47
2018-12-11T01:34:57.223Z,4.93
2018-12-11T01:37:25.739Z,5.33
2018-12-11T01:39:54.329Z,7.20
2018-12-11T01:42:22.898Z,5.17
2018-12-11T01:44:51.455Z,7.77
2018-12-11T01:47:20.035Z,7.07
2018-12-11T01:49:48.665Z,6.43
2018-12-11T01:52:17.205Z,5.90
2018-12-11T01:54:45.782Z,4.37
2018-12-11T01:57:14.308Z,4.13
2018-12-11T01:59:42.921Z,4.57
2018-12-11T02:02:11.472Z,8.00
2018-12-11T02:04:40.133Z,4.70
2018-12-11T02:07:08.726Z,5.37
2018-12-11T02:09:37.325Z,5.87
2018-12-11T02:12:05.892Z,4.53
2018-12-11T02:14:34.528Z,6.10
2018-12-11T02:17:03.354Z,5.93
2018-12-11T02:19:31.968Z,4.23
2018-12-11T02:22:00.527Z,3.73
2018-12-11T02:24:29.140Z,4.07
2018-12-11T02:26:57.686Z,7.23
2018-12-11T02:29:26.297Z,4.20
2018-12-11T02:31:54.929Z,5.13
2018-12-11T02:34:23.488Z,4.07
2018-12-11T02:36:52.077Z,5.47
2018-12-11T02:39:20.639Z,4.80
2018-12-11T02:41:49.229Z,3.80
2018-12-11T02:44:17.792Z,4.77
2018-12-11T02:46:46.389Z,4.57
2018-12-11T02:49:14.994Z,4.33
2018-12-11T02:51:43.563Z,5.30
2018-12-11T02:54:12.107Z,3.80
2018-12-11T02:56:40.658Z,5.03
2018-12-11T02:59:09.252Z,4.83
2018-12-11T03:01:37.849Z,6.20
2018-12-11T03:04:06.395Z,4.73
2018-12-11T03:06:35.054Z,4.73
2018-12-11T03:09:05.552Z,4.70
2018-12-11T03:11:34.114Z,4.87
2018-12-11T03:14:02.738Z,5.60
2018-12-11T03:16:31.504Z,3.60
2018-12-11T03:19:00.099Z,5.83
2018-12-11T03:21:28.701Z,3.80
2018-12-11T03:23:57.246Z,4.97
2018-12-11T03:26:25.854Z,4.50
2018-12-11T03:28:54.449Z,4.73
2018-12-11T03:31:23.113Z,5.40
2018-12-11T03:33:51.736Z,3.93
2018-12-11T03:36:20.346Z,3.67
2018-12-11T03:38:48.934Z,3.70
2018-12-11T03:41:17.608Z,5.57
2018-12-11T03:43:46.141Z,3.53
2018-12-11T03:46:14.701Z,4.60
2018-12-11T03:48:43.246Z,7.23
2018-12-11T03:51:11.866Z,4.30
2018-12-11T03:53:40.418Z,7.83
2018-12-11T03:56:09.048Z,4.60
2018-12-11T03:58:37.713Z,6.13
2018-12-11T04:01:06.351Z,4.20
2018-12-11T04:03:35.022Z,4.37
2018-12-11T04:06:03.609Z,4.63
2018-12-11T04:08:32.194Z,6.53
2018-12-11T04:11:00.899Z,5.63
2018-12-11T04:13:29.469Z,6.27
2018-12-11T04:15:58.046Z,5.15
2018-12-11T04:18:26.686Z,6.47
2018-12-11T04:20:55.308Z,5.57
2018-12-11T04:23:23.899Z,4.78
2018-12-11T04:25:52.519Z,8.00
2018-12-11T04:28:21.153Z,5.50
2018-12-11T04:30:49.777Z,5.10
2018-12-11T04:33:18.367Z,5.20
2018-12-11T04:35:47.008Z,4.70
2018-12-11T04:38:15.649Z,4.97
2018-12-11T04:40:44.315Z,6.67
2018-12-11T04:43:12.875Z,7.30
2018-12-11T04:45:41.518Z,9.35
2018-12-11T04:48:10.167Z,7.45
2018-12-11T04:50:38.832Z,7.23
2018-12-11T04:53:07.461Z,7.80
2018-12-11T04:55:36.079Z,5.60
2018-12-11T04:58:04.766Z,5.13
2018-12-11T05:00:33.701Z,5.50
2018-12-11T05:03:02.323Z,5.35
2018-12-11T05:05:30.877Z,6.00
2018-12-11T05:07:59.386Z,7.23
2018-12-11T05:10:28.151Z,8.23
2018-12-11T05:12:56.696Z,8.63
2018-12-11T05:15:25.302Z,6.07
2018-12-11T05:17:53.930Z,5.30
2018-12-11T05:20:22.616Z,7.50
2018-12-11T05:22:51.219Z,6.67
2018-12-11T05:25:19.801Z,8.05
2018-12-11T05:27:48.412Z,5.77
2018-12-11T05:30:17.161Z,6.33
2018-12-11T05:32:45.779Z,9.50
2018-12-11T05:35:14.383Z,8.03
2018-12-11T05:37:42.918Z,6.97
2018-12-11T05:40:11.682Z,9.80
2018-12-11T05:42:40.311Z,6.30
2018-12-11T05:45:08.901Z,5.93
2018-12-11T05:47:37.682Z,6.17
2018-12-11T05:50:07.346Z,9.77
2018-12-11T05:52:35.978Z,5.60
2018-12-11T05:55:05.320Z,5.90
2018-12-11T05:57:33.931Z,6.70
2018-12-11T06:00:02.493Z,5.10
2018-12-11T06:02:31.120Z,6.20
2018-12-11T06:04:59.640Z,6.50
2018-12-11T06:07:28.440Z,5.87
2018-12-11T06:09:57.038Z,9.23
2018-12-11T06:12:25.574Z,5.60
2018-12-11T06:14:54.102Z,5.90
2018-12-11T06:17:22.719Z,11.00
2018-12-11T06:19:51.287Z,6.97
2018-12-11T06:22:19.867Z,8.97
2018-12-11T06:24:48.427Z,7.00
2018-12-11T06:27:17.014Z,5.73
2018-12-11T06:29:45.543Z,6.27
2018-12-11T06:32:14.118Z,6.53
2018-12-11T06:34:42.684Z,7.20
2018-12-11T06:37:11.258Z,8.37
2018-12-11T06:39:39.813Z,5.97
2018-12-11T06:42:08.393Z,6.00
2018-12-11T06:44:36.939Z,6.93
2018-12-11T06:47:05.534Z,7.17
2018-12-11T06:49:34.282Z,8.63
2018-12-11T06:52:02.811Z,7.90
2018-12-11T06:54:31.332Z,8.00
2018-12-11T06:56:59.931Z,7.73
2018-12-11T06:59:28.549Z,9.03
2018-12-11T07:01:57.074Z,7.80
2018-12-11T07:04:25.656Z,7.77
2018-12-11T07:06:54.319Z,7.47
2018-12-11T07:09:22.846Z,6.17
2018-12-11T07:11:51.475Z,7.33
2018-12-11T07:14:20.562Z,6.53
2018-12-11T07:16:49.084Z,9.83
2018-12-11T07:19:17.763Z,6.63
2018-12-11T07:21:46.348Z,8.50
2018-12-11T07:24:14.927Z,8.87
2018-12-11T07:26:43.511Z,9.13
2018-12-11T07:29:12.125Z,9.83
2018-12-11T07:31:40.813Z,7.63
2018-12-11T07:34:09.373Z,8.40
2018-12-11T07:36:37.977Z,6.23
2018-12-11T07:39:07.428Z,7.23
2018-12-11T07:41:35.941Z,8.03
2018-12-11T07:44:04.745Z,8.50
2018-12-11T07:46:33.387Z,6.43
2018-12-11T07:49:02.208Z,9.53
2018-12-11T07:51:30.796Z,8.33
2018-12-11T07:53:59.406Z,7.97
2018-12-11T07:56:27.981Z,8.60
2018-12-11T07:58:56.650Z,4.87
2018-12-11T08:01:25.278Z,8.97
2018-12-11T08:03:53.881Z,6.30
2018-12-11T08:06:22.431Z,5.30
2018-12-11T08:08:50.989Z,7.07
2018-12-11T08:11:19.531Z,5.60
2018-12-11T08:13:48.062Z,5.97
2018-12-11T08:16:17.482Z,4.70
2018-12-11T08:18:46.009Z,5.60
2018-12-11T08:21:14.600Z,5.23
2018-12-11T08:23:43.141Z,6.53
2018-12-11T08:26:11.713Z,6.00
2018-12-11T08:28:40.294Z,5.13
2018-12-11T08:31:08.890Z,4.37
2018-12-11T08:33:37.489Z,4.70
2018-12-11T08:36:06.050Z,5.63
2018-12-11T08:38:34.701Z,5.23
2018-12-11T08:41:03.281Z,7.90
2018-12-11T08:43:31.798Z,5.40
2018-12-11T08:46:00.376Z,5.17
2018-12-11T08:48:28.918Z,6.80
2018-12-11T08:50:57.581Z,6.37
2018-12-11T08:53:26.184Z,8.97
2018-12-11T08:55:54.710Z,4.30
2018-12-11T08:58:23.342Z,5.00
2018-12-11T09:00:52.204Z,4.73
2018-12-11T09:03:20.830Z,4.87
2018-12-11T09:05:49.491Z,5.33
2018-12-11T09:08:18.137Z,4.20
2018-12-11T09:10:53.428Z,5.13
2018-12-11T09:13:22.032Z,6.20
2018-12-11T09:15:50.571Z,3.87
2018-12-11T09:18:19.222Z,4.80
2018-12-11T09:20:47.751Z,4.37
2018-12-11T09:23:16.312Z,3.53
2018-12-11T09:25:44.969Z,6.13
2018-12-11T09:28:13.557Z,3.93
2018-12-11T09:30:42.166Z,4.90
2018-12-11T09:33:10.767Z,3.87
2018-12-11T09:35:39.597Z,4.50
2018-12-11T09:38:08.214Z,8.40
2018-12-11T09:40:36.939Z,5.57
2018-12-11T09:43:05.489Z,6.00
2018-12-11T09:45:34.117Z,5.60
2018-12-11T09:48:02.723Z,5.83
2018-12-11T09:50:31.287Z,4.27
2018-12-11T09:52:59.850Z,7.17
2018-12-11T09:55:28.433Z,4.93
2018-12-11T09:57:57.183Z,5.83
2018-12-11T10:00:27.414Z,5.20
2018-12-11T10:02:56.347Z,5.10
2018-12-11T10:05:24.974Z,4.83
2018-12-11T10:07:53.611Z,4.43
2018-12-11T10:10:22.240Z,6.07
2018-12-11T10:12:50.857Z,4.83
2018-12-11T10:15:19.477Z,5.33
2018-12-11T10:17:48.146Z,9.70
2018-12-11T10:20:17.078Z,5.10
2018-12-11T10:22:45.702Z,6.20
2018-12-11T10:25:14.353Z,8.00
2018-12-11T10:27:42.962Z,4.93
2018-12-11T10:30:12.312Z,5.23
2018-12-11T10:32:40.921Z,5.30
2018-12-11T10:35:09.611Z,4.77
2018-12-11T10:37:38.159Z,3.87
2018-12-11T10:40:07.127Z,3.90
2018-12-11T10:42:36.131Z,5.47
2018-12-11T10:45:04.971Z,3.50
2018-12-11T10:47:33.593Z,4.97
2018-12-11T10:50:02.307Z,6.63
2018-12-11T10:52:30.975Z,4.30
2018-12-11T10:54:59.649Z,5.40
2018-12-11T10:57:28.263Z,5.47
2018-12-11T10:59:56.787Z,7.00
2018-12-11T11:02:27.701Z,6.27
2018-12-11T11:04:56.218Z,5.60
2018-12-11T11:07:24.761Z,5.97
2018-12-11T11:09:53.292Z,7.73
2018-12-11T11:12:21.875Z,3.90
2018-12-11T11:14:50.534Z,7.03
2018-12-11T11:17:19.129Z,5.53
2018-12-11T11:19:47.833Z,7.53
2018-12-11T11:22:16.525Z,3.70
2018-12-11T11:24:45.178Z,4.97
2018-12-11T11:27:13.894Z,4.30
2018-12-11T11:29:42.465Z,3.30
2018-12-11T11:32:11.031Z,5.13
2018-12-11T11:34:41.220Z,7.17
2018-12-11T11:37:09.775Z,5.83
2018-12-11T11:39:38.419Z,6.10
2018-12-11T11:42:06.764Z,4.50
2018-12-11T11:44:35.355Z,6.23
2018-12-11T11:47:04.403Z,6.23
2018-12-11T11:49:33.018Z,5.53
2018-12-11T11:52:01.596Z,4.93
2018-12-11T11:54:30.122Z,3.43
2018-12-11T11:56:58.707Z,7.00
2018-12-11T11:59:27.347Z,4.80
2018-12-11T12:01:56.080Z,4.67
2018-12-11T12:04:24.687Z,4.63
2018-12-11T12:06:53.253Z,5.60
2018-12-11T12:09:21.841Z,5.77
2018-12-11T12:11:50.516Z,5.03
2018-12-11T12:14:19.096Z,4.30
2018-12-11T12:16:47.613Z,4.97
2018-12-11T12:19:16.176Z,5.13
2018-12-11T12:21:44.780Z,5.50
2018-12-11T12:24:13.442Z,4.83
2018-12-11T12:26:42.153Z,4.10
2018-12-11T12:29:10.721Z,5.10
2018-12-11T12:31:39.396Z,3.90
2018-12-11T12:34:07.968Z,5.77
2018-12-11T12:36:36.599Z,4.00
2018-12-11T12:39:07.811Z,3.53
2018-12-11T12:41:36.597Z,10.63
2018-12-11T12:44:05.132Z,6.93
2018-12-11T12:46:33.668Z,5.70
2018-12-11T12:49:02.314Z,7.67
2018-12-11T12:51:30.954Z,6.23
2018-12-11T12:53:59.506Z,5.03
2018-12-11T12:56:28.044Z,6.20
2018-12-11T12:58:56.630Z,5.30
2018-12-11T13:01:25.261Z,6.63
2018-12-11T13:03:54.049Z,4.63
2018-12-11T13:06:22.654Z,4.17
2018-12-11T13:08:51.619Z,6.37
2018-12-11T13:11:20.696Z,4.50
2018-12-11T13:13:49.203Z,7.77
2018-12-11T13:16:17.801Z,6.83
2018-12-11T13:18:46.377Z,5.00
2018-12-11T13:21:15.021Z,4.73
2018-12-11T13:23:43.706Z,4.20
2018-12-11T13:26:12.290Z,6.97
2018-12-11T13:28:40.922Z,4.63
2018-12-11T13:31:09.538Z,3.30
2018-12-11T13:33:38.129Z,5.03
2018-12-11T13:36:07.285Z,6.57
2018-12-11T13:38:36.027Z,7.30
2018-12-11T13:41:04.697Z,6.07
2018-12-11T13:43:33.267Z,5.60
2018-12-11T13:46:01.858Z,6.83
2018-12-11T13:48:30.535Z,8.63
2018-12-11T13:50:59.144Z,6.40
2018-12-11T13:53:27.753Z,7.83
2018-12-11T13:55:56.418Z,7.57
2018-12-11T13:58:26.935Z,8.57
2018-12-11T14:00:55.567Z,8.60
2018-12-11T14:03:24.150Z,4.73
2018-12-11T14:05:52.701Z,7.07
2018-12-11T14:08:22.560Z,8.30
2018-12-11T14:10:51.143Z,6.73
2018-12-11T14:13:19.788Z,6.43
2018-12-11T14:15:48.732Z,4.80
2018-12-11T14:18:17.897Z,4.57
2018-12-11T14:20:46.520Z,4.80
2018-12-11T14:23:15.139Z,6.30
2018-12-11T14:25:55.888Z,7.20
2018-12-11T14:28:24.668Z,7.13
2018-12-11T14:30:56.854Z,8.80
2018-12-11T14:33:27.815Z,6.00
2018-12-11T14:35:56.466Z,5.80
2018-12-11T14:38:25.227Z,4.10
2018-12-11T14:40:53.933Z,6.27
2018-12-11T14:43:22.591Z,12.03
2018-12-11T14:45:51.185Z,8.70
2018-12-11T14:48:19.877Z,9.20
2018-12-11T14:50:48.467Z,9.63
2018-12-11T14:53:17.023Z,7.80
2018-12-11T14:55:45.577Z,8.97
2018-12-11T14:58:14.133Z,6.70
2018-12-11T15:00:42.718Z,5.80
2018-12-11T15:03:11.295Z,11.23
2018-12-11T15:05:40.032Z,7.60
2018-12-11T15:08:08.607Z,8.03
2018-12-11T15:10:37.423Z,5.17
2018-12-11T15:13:06.083Z,4.47
2018-12-11T15:15:34.658Z,6.93
2018-12-11T15:18:03.360Z,7.07
2018-12-11T15:20:31.903Z,8.17
2018-12-11T15:23:00.452Z,8.40
2018-12-11T15:25:29.044Z,5.83
2018-12-11T15:27:57.648Z,7.90
2018-12-11T15:30:26.259Z,4.57
2018-12-11T15:32:54.887Z,6.20
2018-12-11T15:35:23.431Z,4.57
2018-12-11T15:37:51.968Z,6.57
2018-12-11T15:40:19.409Z,6.63
2018-12-11T15:42:47.988Z,6.33
2018-12-11T15:45:16.570Z,7.40
2018-12-11T15:47:45.190Z,9.47
2018-12-11T15:50:13.820Z,11.00
2018-12-11T15:52:42.345Z,7.60
2018-12-11T15:55:10.908Z,10.50
2018-12-11T15:57:39.498Z,7.23
2018-12-11T16:00:12.466Z,12.63
2018-12-11T16:02:41.054Z,10.30
2018-12-11T16:05:09.612Z,14.17
2018-12-11T16:07:38.197Z,9.40
2018-12-11T16:10:08.017Z,12.90
2018-12-11T16:12:36.578Z,8.73
2018-12-11T16:15:05.594Z,12.03
2018-12-11T16:17:34.142Z,12.33
2018-12-11T16:20:02.809Z,17.23
2018-12-11T16:22:31.355Z,16.37
2018-12-11T16:25:00.307Z,19.07
2018-12-11T16:27:29.571Z,17.80
2018-12-11T16:29:59.371Z,13.00
2018-12-11T16:32:29.242Z,11.30
2018-12-11T16:34:58.086Z,15.70
2018-12-11T16:37:27.431Z,14.80
2018-12-11T16:40:04.418Z,9.90
2018-12-11T16:42:29.473Z,9.50
2018-12-11T16:44:58.054Z,14.03
2018-12-11T16:47:27.191Z,9.73
2018-12-11T16:49:56.642Z,12.23
2018-12-11T16:52:25.330Z,12.43
2018-12-11T16:54:53.894Z,14.00
2018-12-11T16:57:22.439Z,12.40
2018-12-11T16:59:50.983Z,15.63
2018-12-11T17:02:19.608Z,13.20
2018-12-11T17:04:48.427Z,17.80
2018-12-11T17:07:18.980Z,16.60
2018-12-11T17:09:47.595Z,12.37
2018-12-11T17:12:16.637Z,9.10
2018-12-11T17:14:45.217Z,10.83
2018-12-11T17:17:13.785Z,8.77
2018-12-11T17:19:42.354Z,8.03
2018-12-11T17:22:11.325Z,8.03
2018-12-11T17:24:40.219Z,11.57
2018-12-11T17:27:08.850Z,10.47
2018-12-11T17:29:37.375Z,10.97
2018-12-11T17:32:07.246Z,12.43
2018-12-11T17:34:35.818Z,10.80
2018-12-11T17:37:04.422Z,14.70
2018-12-11T17:39:33.040Z,13.27
2018-12-11T17:42:01.711Z,11.17
2018-12-11T17:44:33.174Z,8.60
2018-12-11T17:47:01.829Z,10.57
2018-12-11T17:49:30.440Z,9.88
2018-12-11T17:51:59.002Z,9.83
2018-12-11T17:54:27.674Z,10.80
2018-12-11T17:56:57.705Z,10.77
2018-12-11T17:59:26.788Z,9.13
2018-12-11T18:02:03.791Z,9.37
2018-12-11T18:04:32.630Z,11.57
2018-12-11T18:07:01.615Z,10.70
2018-12-11T18:09:30.218Z,13.63
2018-12-11T18:11:59.582Z,10.40
2018-12-11T18:14:28.209Z,11.00
2018-12-11T18:16:56.885Z,11.47
2018-12-11T18:19:25.931Z,10.50
2018-12-11T18:21:54.529Z,12.67
2018-12-11T18:24:23.194Z,9.93
2018-12-11T18:26:51.785Z,11.90
2018-12-11T18:29:20.883Z,12.43
2018-12-11T18:31:50.038Z,11.17
2018-12-11T18:34:19.039Z,10.50
2018-12-11T18:36:47.858Z,13.47
2018-12-11T18:39:16.856Z,14.65
2018-12-11T18:41:48.831Z,9.60
2018-12-11T18:44:18.248Z,10.13
2018-12-11T18:46:47.206Z,10.45
2018-12-11T18:49:16.086Z,9.03
2018-12-11T18:51:44.741Z,10.28
2018-12-11T18:54:13.749Z,10.43
2018-12-11T18:56:42.535Z,11.03
2018-12-11T18:59:11.127Z,15.45
2018-12-11T19:01:40.235Z,8.28
2018-12-11T19:04:13.388Z,9.53
2018-12-11T19:06:44.891Z,10.82
2018-12-11T19:09:13.532Z,11.48
2018-12-11T19:11:42.172Z,8.53
2018-12-11T19:14:12.060Z,9.17
2018-12-11T19:16:40.649Z,9.37
2018-12-11T19:19:09.226Z,8.37
2018-12-11T19:21:38.290Z,8.73
2018-12-11T19:24:18.432Z,7.58
2018-12-11T19:26:47.036Z,9.17
2018-12-11T19:29:18.716Z,11.40
2018-12-11T19:31:47.451Z,12.05
2018-12-11T19:34:15.989Z,8.88
2018-12-11T19:36:44.705Z,10.00
2018-12-11T19:39:13.703Z,13.43
2018-12-11T19:41:42.271Z,9.68
2018-12-11T19:44:11.206Z,11.68
2018-12-11T19:46:39.786Z,14.78
2018-12-11T19:49:09.120Z,13.15
2018-12-11T19:51:37.694Z,12.20
2018-12-11T19:54:06.309Z,14.10
2018-12-11T19:56:34.904Z,13.18
2018-12-11T19:59:03.562Z,10.70
2018-12-11T20:01:32.105Z,10.75
2018-12-11T20:04:00.936Z,11.90
2018-12-11T20:06:29.786Z,11.90
2018-12-11T20:08:58.413Z,13.77
2018-12-11T20:14:02.002Z,11.27
2018-12-11T20:16:30.838Z,9.23
2018-12-11T20:19:00.773Z,10.03
2018-12-11T20:21:29.552Z,12.55
2018-12-11T20:24:04.997Z,12.07
2018-12-11T20:26:38.969Z,12.47
2018-12-11T20:29:04.049Z,11.03
2018-12-11T20:31:32.653Z,12.10
2018-12-11T20:34:01.312Z,11.18
2018-12-11T20:36:29.941Z,14.65
2018-12-11T20:38:58.527Z,21.37
2018-12-11T20:41:27.106Z,14.33
2018-12-11T20:43:55.676Z,13.03
2018-12-11T20:46:25.926Z,15.23
2018-12-11T20:48:54.534Z,14.73
2018-12-11T20:51:23.117Z,15.10
2018-12-11T20:53:51.747Z,15.48
2018-12-11T20:56:20.365Z,18.62
2018-12-11T20:58:48.916Z,21.80
2018-12-11T21:01:17.442Z,20.20
2018-12-11T21:03:46.034Z,17.62
2018-12-11T21:06:14.616Z,15.30
2018-12-11T21:08:44.561Z,13.65
2018-12-11T21:11:13.146Z,14.23
2018-12-11T21:13:41.695Z,13.50
2018-12-11T21:16:11.106Z,11.90
2018-12-11T21:18:40.072Z,12.58
2018-12-11T21:21:09.524Z,10.63
2018-12-11T21:23:38.151Z,12.70
2018-12-11T21:26:06.746Z,13.10
2018-12-11T21:28:35.390Z,14.33
2018-12-11T21:31:03.997Z,12.73
2018-12-11T21:33:32.660Z,10.63
2018-12-11T21:36:01.280Z,12.15
2018-12-11T21:38:29.859Z,11.10
2018-12-11T21:40:58.395Z,10.18
2018-12-11T21:43:26.987Z,10.15
2018-12-11T21:45:55.566Z,7.08
2018-12-11T21:48:24.167Z,12.67
2018-12-11T21:50:52.776Z,8.05
2018-12-11T21:53:21.326Z,9.20
2018-12-11T21:55:50.044Z,11.28
2018-12-11T21:58:18.804Z,9.23
2018-12-11T22:00:47.371Z,10.77
2018-12-11T22:03:16.325Z,7.53
2018-12-11T22:05:45.160Z,6.80
2018-12-11T22:08:13.757Z,7.23
2018-12-11T22:10:42.303Z,9.73
2018-12-11T22:13:10.871Z,7.30
2018-12-11T22:15:39.455Z,6.78
2018-12-11T22:18:07.970Z,5.92
2018-12-11T22:20:36.496Z,9.80
2018-12-11T22:23:05.098Z,6.87
2018-12-11T22:25:33.723Z,6.53
2018-12-11T22:28:02.324Z,6.45
2018-12-11T22:30:31.102Z,6.57
2018-12-11T22:32:59.629Z,7.17
2018-12-11T22:35:28.160Z,7.07
2018-12-11T22:37:56.712Z,6.57
2018-12-11T22:40:25.249Z,6.47
2018-12-11T22:42:53.847Z,6.60
2018-12-11T22:45:22.506Z,6.40
2018-12-11T22:47:51.076Z,6.73
2018-12-11T22:50:19.631Z,7.93
2018-12-11T22:52:48.423Z,6.60
2018-12-11T22:55:17.000Z,8.03
2018-12-11T22:57:45.543Z,5.87
2018-12-11T23:00:14.168Z,10.13
2018-12-11T23:02:42.743Z,8.00
2018-12-11T23:05:11.548Z,10.90
2018-12-11T23:07:40.047Z,10.67
2018-12-11T23:10:08.725Z,10.43
2018-12-11T23:12:37.278Z,8.40
2018-12-11T23:15:06.788Z,7.30
2018-12-11T23:17:35.348Z,6.93
2018-12-11T23:20:04.296Z,7.30
2018-12-11T23:22:32.932Z,7.07
2018-12-11T23:25:01.495Z,7.57
2018-12-11T23:27:30.015Z,11.73
2018-12-11T23:29:58.613Z,9.50
2018-12-11T23:32:27.161Z,7.37
2018-12-11T23:34:55.871Z,6.67
2018-12-11T23:37:24.406Z,8.27
2018-12-11T23:39:52.995Z,7.27
2018-12-11T23:42:21.508Z,7.73
2018-12-11T23:44:50.033Z,7.37
2018-12-11T23:47:18.703Z,7.80
2018-12-11T23:49:47.656Z,8.23
2018-12-11T23:52:16.227Z,6.50
2018-12-11T23:54:44.816Z,7.47
2018-12-11T23:57:13.347Z,7.27
2018-12-11T23:59:41.898Z,7.13
